createdAt,value
2018-08-02T00:00:41.552Z,21.78
2018-08-02T00:01:41.543Z,21.74
2018-08-02T00:02:41.273Z,21.71
2018-08-02T00:03:41.526Z,21.75
2018-08-02T00:04:41.519Z,21.76
2018-08-02T00:05:41.247Z,21.66
2018-08-02T00:06:41.494Z,21.71
2018-08-02T00:07:41.492Z,21.67
2018-08-02T00:08:41.221Z,21.63
2018-08-02T00:09:41.731Z,21.61
2018-08-02T00:10:41.466Z,21.59
2018-08-02T00:11:41.456Z,21.61
2018-08-02T00:12:41.186Z,21.59
2018-08-02T00:13:41.696Z,21.67
2018-08-02T00:14:41.165Z,21.6
2018-08-02T00:15:41.683Z,21.56
2018-08-02T00:16:41.677Z,21.46
2018-08-02T00:17:41.658Z,21.54
2018-08-02T00:18:41.659Z,21.61
2018-08-02T00:19:41.380Z,21.53
2018-08-02T00:20:41.368Z,21.59
2018-08-02T00:21:41.375Z,21.59
2018-08-02T00:22:41.294Z,21.59
2018-08-02T00:23:41.615Z,21.54
2018-08-02T00:24:41.088Z,21.54
2018-08-02T00:25:41.606Z,21.54
2018-08-02T00:26:41.049Z,21.5
2018-08-02T00:27:41.040Z,21.42
2018-08-02T00:28:41.565Z,21.36
2018-08-02T00:29:41.292Z,21.36
2018-08-02T00:30:41.542Z,21.41
2018-08-02T00:31:41.267Z,21.44
2018-08-02T00:32:41.264Z,21.39
2018-08-02T00:33:41.255Z,21.39
2018-08-02T00:34:41.503Z,21.38
2018-08-02T00:35:41.268Z,21.41
2018-08-02T00:36:41.229Z,21.44
2018-08-02T00:37:41.494Z,21.45
2018-08-02T00:38:41.205Z,21.38
2018-08-02T00:39:41.195Z,21.44
2018-08-02T00:40:41.188Z,21.41
2018-08-02T00:41:41.214Z,21.44
2018-08-02T00:42:41.439Z,21.45
2018-08-02T00:43:41.428Z,21.38
2018-08-02T00:44:41.423Z,21.3
2018-08-02T00:45:41.139Z,21.34
2018-08-02T00:46:41.129Z,21.41
2018-08-02T00:47:41.123Z,21.39
2018-08-02T00:48:41.384Z,21.39
2018-08-02T00:49:41.367Z,21.39
2018-08-02T00:50:41.101Z,21.46
2018-08-02T00:51:41.360Z,21.41
2018-08-02T00:52:41.099Z,21.39
2018-08-02T00:53:41.640Z,21.41
2018-08-02T00:54:41.077Z,21.45
2018-08-02T00:55:41.050Z,21.35
2018-08-02T00:56:41.310Z,21.27
2018-08-02T00:57:41.051Z,21.34
2018-08-02T00:58:41.287Z,21.34
2018-08-02T00:59:40.742Z,21.26
2018-08-02T01:00:41.317Z,21.34
2018-08-02T01:01:40.998Z,21.26
2018-08-02T01:02:41.254Z,21.21
2018-08-02T01:03:41.304Z,21.27
2018-08-02T01:04:40.962Z,21.29
2018-08-02T01:05:41.215Z,21.27
2018-08-02T01:06:40.943Z,21.26
2018-08-02T01:07:40.940Z,21.34
2018-08-02T01:08:41.188Z,21.27
2018-08-02T01:09:41.181Z,21.21
2018-08-02T01:10:40.907Z,21.21
2018-08-02T01:11:40.894Z,21.26
2018-08-02T01:12:40.627Z,21.2
2018-08-02T01:13:40.951Z,21.27
2018-08-02T01:14:41.135Z,21.23
2018-08-02T01:15:41.239Z,21.09
2018-08-02T01:16:40.850Z,21.14
2018-08-02T01:17:40.839Z,21.06
2018-08-02T01:18:40.835Z,21.14
2018-08-02T01:19:40.820Z,21.16
2018-08-02T01:20:40.817Z,21.05
2018-08-02T01:21:40.534Z,21.04
2018-08-02T01:22:40.848Z,20.96
2018-08-02T01:23:40.781Z,21.02
2018-08-02T01:24:40.776Z,20.91
2018-08-02T01:25:40.765Z,21.02
2018-08-02T01:26:40.753Z,20.99
2018-08-02T01:27:40.747Z,20.98
2018-08-02T01:28:41.009Z,20.96
2018-08-02T01:29:40.726Z,20.9
2018-08-02T01:30:40.985Z,20.93
2018-08-02T01:31:40.449Z,20.84
2018-08-02T01:32:40.972Z,20.86
2018-08-02T01:33:40.686Z,20.93
2018-08-02T01:34:40.419Z,20.87
2018-08-02T01:35:40.673Z,20.76
2018-08-02T01:36:40.745Z,20.8
2018-08-02T01:37:40.924Z,20.83
2018-08-02T01:38:40.909Z,20.84
2018-08-02T01:39:40.909Z,20.74
2018-08-02T01:40:40.705Z,20.79
2018-08-02T01:41:40.890Z,20.68
2018-08-02T01:42:40.339Z,20.68
2018-08-02T01:43:40.875Z,20.65
2018-08-02T01:44:40.859Z,20.68
2018-08-02T01:45:40.584Z,20.69
2018-08-02T01:46:40.837Z,20.64
2018-08-02T01:47:40.820Z,20.64
2018-08-02T01:48:40.812Z,20.56
2018-08-02T01:49:40.272Z,20.64
2018-08-02T01:50:40.349Z,20.58
2018-08-02T01:51:40.520Z,20.59
2018-08-02T01:52:40.522Z,20.5
2018-08-02T01:53:40.777Z,20.53
2018-08-02T01:54:40.225Z,20.56
2018-08-02T01:55:40.483Z,20.5
2018-08-02T01:56:40.472Z,20.53
2018-08-02T01:57:40.458Z,20.5
2018-08-02T01:58:40.458Z,20.46
2018-08-02T01:59:40.437Z,20.42
2018-08-02T02:00:40.696Z,20.39
2018-08-02T02:01:40.201Z,20.43
2018-08-02T02:02:40.515Z,20.42
2018-08-02T02:03:40.669Z,20.38
2018-08-02T02:04:40.394Z,20.43
2018-08-02T02:05:40.390Z,20.41
2018-08-02T02:06:40.370Z,20.38
2018-08-02T02:07:40.627Z,20.46
2018-08-02T02:08:40.612Z,20.47
2018-08-02T02:09:40.342Z,20.43
2018-08-02T02:10:40.594Z,20.38
2018-08-02T02:11:40.580Z,20.39
2018-08-02T02:12:40.571Z,20.35
2018-08-02T02:13:40.043Z,20.42
2018-08-02T02:14:40.292Z,20.43
2018-08-02T02:15:40.284Z,20.3
2018-08-02T02:16:40.007Z,20.42
2018-08-02T02:17:40.534Z,20.3
2018-08-02T02:18:40.527Z,20.28
2018-08-02T02:19:40.247Z,20.27
2018-08-02T02:20:40.237Z,20.31
2018-08-02T02:21:40.224Z,20.25
2018-08-02T02:22:40.421Z,20.28
2018-08-02T02:23:39.939Z,20.27
2018-08-02T02:24:40.207Z,20.27
2018-08-02T02:25:40.448Z,20.24
2018-08-02T02:26:40.441Z,20.25
2018-08-02T02:27:40.173Z,20.25
2018-08-02T02:28:39.891Z,20.21
2018-08-02T02:29:40.155Z,20.24
2018-08-02T02:30:40.134Z,20.25
2018-08-02T02:31:40.146Z,20.25
2018-08-02T02:32:39.856Z,20.25
2018-08-02T02:33:40.370Z,20.25
2018-08-02T02:34:39.837Z,20.2
2018-08-02T02:35:40.357Z,20.2
2018-08-02T02:36:39.813Z,20.21
2018-08-02T02:37:40.328Z,20.2
2018-08-02T02:38:40.068Z,20.12
2018-08-02T02:39:40.360Z,20.16
2018-08-02T02:40:40.296Z,20.1
2018-08-02T02:41:40.028Z,20.08
2018-08-02T02:42:39.754Z,20.15
2018-08-02T02:43:40.270Z,20.1
2018-08-02T02:44:40.006Z,20.08
2018-08-02T02:45:39.994Z,20.13
2018-08-02T02:46:40.288Z,20.23
2018-08-02T02:47:40.233Z,20.24
2018-08-02T02:48:39.691Z,20.23
2018-08-02T02:49:39.947Z,20.21
2018-08-02T02:50:39.941Z,20.23
2018-08-02T02:51:40.191Z,20.23
2018-08-02T02:52:39.926Z,20.24
2018-08-02T02:53:39.911Z,20.18
2018-08-02T02:54:39.902Z,20.21
2018-08-02T02:55:39.887Z,20.23
2018-08-02T02:56:40.150Z,20.23
2018-08-02T02:57:39.601Z,20.23
2018-08-02T02:58:40.128Z,20.1
2018-08-02T02:59:39.588Z,20.21
2018-08-02T03:00:40.106Z,20.13
2018-08-02T03:01:39.563Z,20.1
2018-08-02T03:02:39.818Z,20.1
2018-08-02T03:03:40.083Z,20.15
2018-08-02T03:04:40.064Z,20.2
2018-08-02T03:05:40.061Z,20.15
2018-08-02T03:06:39.781Z,20.16
2018-08-02T03:07:39.767Z,20.13
2018-08-02T03:08:39.495Z,20.16
2018-08-02T03:09:39.743Z,20.13
2018-08-02T03:10:39.748Z,20.13
2018-08-02T03:11:39.728Z,20.15
2018-08-02T03:12:39.454Z,20.09
2018-08-02T03:13:39.450Z,20.06
2018-08-02T03:14:39.703Z,20.08
2018-08-02T03:15:39.687Z,20.05
2018-08-02T03:16:39.684Z,19.94
2018-08-02T03:17:39.402Z,19.95
2018-08-02T03:18:39.934Z,19.95
2018-08-02T03:19:39.643Z,19.95
2018-08-02T03:20:39.712Z,19.97
2018-08-02T03:21:39.891Z,19.91
2018-08-02T03:22:39.621Z,19.93
2018-08-02T03:23:39.871Z,19.88
2018-08-02T03:24:39.864Z,19.86
2018-08-02T03:25:39.591Z,19.9
2018-08-02T03:26:39.316Z,19.88
2018-08-02T03:27:39.831Z,19.86
2018-08-02T03:28:39.289Z,19.79
2018-08-02T03:29:39.554Z,19.78
2018-08-02T03:30:39.538Z,19.86
2018-08-02T03:31:39.796Z,19.75
2018-08-02T03:32:39.254Z,19.8
2018-08-02T03:33:39.776Z,19.76
2018-08-02T03:34:39.495Z,19.86
2018-08-02T03:35:39.484Z,19.78
2018-08-02T03:36:39.483Z,19.79
2018-08-02T03:37:39.722Z,19.79
2018-08-02T03:38:39.729Z,19.78
2018-08-02T03:39:39.439Z,19.73
2018-08-02T03:40:39.706Z,19.8
2018-08-02T03:41:39.688Z,19.78
2018-08-02T03:42:39.152Z,19.79
2018-08-02T03:43:39.407Z,19.8
2018-08-02T03:44:39.396Z,19.75
2018-08-02T03:45:39.400Z,19.8
2018-08-02T03:46:39.842Z,19.79
2018-08-02T03:47:39.097Z,19.8
2018-08-02T03:48:39.358Z,19.84
2018-08-02T03:49:39.080Z,19.83
2018-08-02T03:50:39.371Z,19.86
2018-08-02T03:51:39.056Z,19.75
2018-08-02T03:52:39.318Z,19.76
2018-08-02T03:53:39.439Z,19.8
2018-08-02T03:54:39.730Z,19.75
2018-08-02T03:55:39.281Z,19.73
2018-08-02T03:56:39.004Z,19.79
2018-08-02T03:57:39.268Z,19.76
2018-08-02T03:58:39.512Z,19.75
2018-08-02T03:59:39.498Z,19.84
2018-08-02T04:00:39.492Z,19.78
2018-08-02T04:01:38.953Z,19.79
2018-08-02T04:02:39.204Z,19.83
2018-08-02T04:03:38.933Z,19.78
2018-08-02T04:04:39.193Z,19.87
2018-08-02T04:05:38.910Z,19.87
2018-08-02T04:06:39.166Z,19.93
2018-08-02T04:07:39.514Z,19.91
2018-08-02T04:08:39.407Z,19.91
2018-08-02T04:09:39.134Z,19.94
2018-08-02T04:10:39.127Z,20.02
2018-08-02T04:11:39.116Z,19.98
2018-08-02T04:12:38.833Z,19.97
2018-08-02T04:13:39.361Z,19.97
2018-08-02T04:14:39.079Z,20.09
2018-08-02T04:15:39.335Z,20.13
2018-08-02T04:16:38.798Z,20.08
2018-08-02T04:17:39.054Z,20.1
2018-08-02T04:18:39.304Z,20.16
2018-08-02T04:19:39.308Z,20.21
2018-08-02T04:20:38.758Z,20.24
2018-08-02T04:21:38.751Z,20.23
2018-08-02T04:22:39.204Z,20.25
2018-08-02T04:23:39.253Z,20.27
2018-08-02T04:24:38.986Z,20.27
2018-08-02T04:25:39.236Z,20.2
2018-08-02T04:26:38.968Z,20.2
2018-08-02T04:27:38.955Z,20.2
2018-08-02T04:28:38.678Z,20.1
2018-08-02T04:29:38.927Z,20.12
2018-08-02T04:30:38.923Z,20.1
2018-08-02T04:31:38.914Z,20.15
2018-08-02T04:32:39.164Z,20.12
2018-08-02T04:33:38.883Z,20.13
2018-08-02T04:34:38.875Z,20.13
2018-08-02T04:35:38.605Z,20.08
2018-08-02T04:36:38.865Z,20.13
2018-08-02T04:37:39.113Z,20.21
2018-08-02T04:38:38.847Z,20.23
2018-08-02T04:39:39.092Z,20.23
2018-08-02T04:40:39.078Z,20.28
2018-08-02T04:41:38.805Z,20.23
2018-08-02T04:42:38.799Z,20.28
2018-08-02T04:43:38.788Z,20.3
2018-08-02T04:44:38.783Z,20.31
2018-08-02T04:45:38.769Z,20.28
2018-08-02T04:46:38.763Z,20.28
2018-08-02T04:47:38.744Z,20.38
2018-08-02T04:48:38.476Z,20.27
2018-08-02T04:49:38.726Z,20.43
2018-08-02T04:50:38.719Z,20.39
2018-08-02T04:51:38.708Z,20.41
2018-08-02T04:52:38.698Z,20.39
2018-08-02T04:53:38.683Z,20.35
2018-08-02T04:54:38.671Z,20.38
2018-08-02T04:55:38.673Z,20.42
2018-08-02T04:56:38.658Z,20.49
2018-08-02T04:57:38.921Z,20.43
2018-08-02T04:58:38.904Z,20.5
2018-08-02T04:59:38.373Z,20.49
2018-08-02T05:00:38.617Z,20.5
2018-08-02T05:01:38.619Z,20.5
2018-08-02T05:02:38.336Z,20.54
2018-08-02T05:03:38.323Z,20.51
2018-08-02T05:04:38.577Z,20.65
2018-08-02T05:05:38.569Z,20.59
2018-08-02T05:06:38.827Z,20.64
2018-08-02T05:07:38.282Z,20.58
2018-08-02T05:08:38.537Z,20.59
2018-08-02T05:09:38.531Z,20.68
2018-08-02T05:10:38.252Z,20.65
2018-08-02T05:11:38.506Z,20.66
2018-08-02T05:12:38.257Z,20.64
2018-08-02T05:13:38.622Z,20.69
2018-08-02T05:14:38.479Z,20.76
2018-08-02T05:15:38.465Z,20.77
2018-08-02T05:16:38.475Z,20.81
2018-08-02T05:17:38.724Z,20.79
2018-08-02T05:18:38.440Z,20.68
2018-08-02T05:19:38.695Z,20.81
2018-08-02T05:20:38.159Z,20.8
2018-08-02T05:21:38.679Z,20.86
2018-08-02T05:22:38.145Z,20.84
2018-08-02T05:23:38.126Z,20.84
2018-08-02T05:24:38.380Z,20.87
2018-08-02T05:25:38.638Z,20.8
2018-08-02T05:26:38.102Z,20.81
2018-08-02T05:27:38.354Z,20.96
2018-08-02T05:28:38.394Z,20.95
2018-08-02T05:29:38.602Z,20.93
2018-08-02T05:30:38.068Z,20.96
2018-08-02T05:31:38.315Z,20.93
2018-08-02T05:32:38.306Z,21.06
2018-08-02T05:33:38.413Z,21.08
2018-08-02T05:34:38.952Z,21.06
2018-08-02T05:35:38.781Z,21.04
2018-08-02T05:36:40.991Z,21.08
2018-08-02T05:37:38.267Z,21.13
2018-08-02T05:38:38.518Z,21.29
2018-08-02T05:39:38.244Z,21.3
2018-08-02T05:40:38.499Z,21.26
2018-08-02T05:41:38.220Z,21.29
2018-08-02T05:42:38.476Z,21.24
2018-08-02T05:43:37.946Z,21.27
2018-08-02T05:44:38.450Z,21.36
2018-08-02T05:45:38.186Z,21.45
2018-08-02T05:46:38.440Z,21.48
2018-08-02T05:47:38.163Z,21.5
2018-08-02T05:48:38.155Z,21.54
2018-08-02T05:49:38.159Z,21.56
2018-08-02T05:50:38.408Z,21.54
2018-08-02T05:51:38.659Z,21.6
2018-08-02T05:52:38.116Z,21.63
2018-08-02T05:53:37.857Z,21.59
2018-08-02T05:54:38.103Z,21.64
2018-08-02T05:55:38.101Z,21.81
2018-08-02T05:56:38.081Z,21.74
2018-08-02T05:57:37.810Z,21.76
2018-08-02T05:58:38.067Z,21.85
2018-08-02T05:59:38.054Z,21.91
2018-08-02T06:00:38.044Z,21.97
2018-08-02T06:01:38.297Z,21.97
2018-08-02T06:02:38.290Z,22.04
2018-08-02T06:03:38.021Z,22.06
2018-08-02T06:04:38.007Z,22.09
2018-08-02T06:05:38.136Z,22.06
2018-08-02T06:06:38.261Z,22.1
2018-08-02T06:07:38.249Z,22.13
2018-08-02T06:08:38.243Z,22.19
2018-08-02T06:09:37.968Z,22.27
2018-08-02T06:10:38.233Z,22.29
2018-08-02T06:11:38.209Z,22.34
2018-08-02T06:12:37.683Z,22.31
2018-08-02T06:13:37.928Z,22.47
2018-08-02T06:14:37.661Z,22.46
2018-08-02T06:15:37.911Z,22.53
2018-08-02T06:16:38.458Z,22.59
2018-08-02T06:17:37.893Z,22.64
2018-08-02T06:18:37.621Z,22.57
2018-08-02T06:19:37.872Z,22.59
2018-08-02T06:20:37.872Z,22.75
2018-08-02T06:21:37.858Z,22.71
2018-08-02T06:22:37.789Z,22.83
2018-08-02T06:23:38.104Z,22.78
2018-08-02T06:24:37.840Z,22.78
2018-08-02T06:25:38.083Z,22.89
2018-08-02T06:26:38.083Z,22.86
2018-08-02T06:27:37.541Z,22.96
2018-08-02T06:28:38.064Z,22.94
2018-08-02T06:29:37.806Z,22.99
2018-08-02T06:30:38.049Z,23.02
2018-08-02T06:31:37.777Z,23.08
2018-08-02T06:32:37.771Z,23.04
2018-08-02T06:33:38.023Z,23.11
2018-08-02T06:34:37.759Z,23.22
2018-08-02T06:35:38.007Z,23.26
2018-08-02T06:36:37.994Z,23.2
2018-08-02T06:37:37.720Z,23.23
2018-08-02T06:38:37.708Z,23.32
2018-08-02T06:39:38.281Z,23.39
2018-08-02T06:40:37.963Z,23.4
2018-08-02T06:41:37.955Z,23.42
2018-08-02T06:42:37.950Z,23.42
2018-08-02T06:43:37.676Z,23.47
2018-08-02T06:44:37.450Z,23.57
2018-08-02T06:45:37.649Z,23.57
2018-08-02T06:46:37.648Z,23.65
2018-08-02T06:47:37.376Z,23.61
2018-08-02T06:48:37.629Z,23.77
2018-08-02T06:49:37.889Z,23.77
2018-08-02T06:50:37.882Z,23.77
2018-08-02T06:51:37.619Z,23.79
2018-08-02T06:52:37.335Z,23.87
2018-08-02T06:53:37.327Z,23.89
2018-08-02T06:54:37.584Z,23.95
2018-08-02T06:55:37.577Z,23.97
2018-08-02T06:56:37.566Z,24
2018-08-02T06:57:37.567Z,24.04
2018-08-02T06:58:37.822Z,24.14
2018-08-02T06:59:37.541Z,24.12
2018-08-02T07:00:37.797Z,24.16
2018-08-02T07:01:37.528Z,24.22
2018-08-02T07:02:37.531Z,24.16
2018-08-02T07:03:37.782Z,24.24
2018-08-02T07:04:37.501Z,24.31
2018-08-02T07:05:37.236Z,24.32
2018-08-02T07:06:37.768Z,24.41
2018-08-02T07:07:37.746Z,24.31
2018-08-02T07:08:37.739Z,24.29
2018-08-02T07:09:37.467Z,24.31
2018-08-02T07:10:37.460Z,24.44
2018-08-02T07:11:37.450Z,24.39
2018-08-02T07:12:37.185Z,24.37
2018-08-02T07:13:37.435Z,24.47
2018-08-02T07:14:37.162Z,24.5
2018-08-02T07:15:37.419Z,24.56
2018-08-02T07:16:37.150Z,24.67
2018-08-02T07:17:37.143Z,24.64
2018-08-02T07:18:37.141Z,24.67
2018-08-02T07:19:37.407Z,24.76
2018-08-02T07:20:37.389Z,24.8
2018-08-02T07:21:37.650Z,24.85
2018-08-02T07:22:37.373Z,24.85
2018-08-02T07:23:37.627Z,24.92
2018-08-02T07:24:37.353Z,24.9
2018-08-02T07:25:37.349Z,25.05
2018-08-02T07:26:37.339Z,24.95
2018-08-02T07:27:37.070Z,24.95
2018-08-02T07:28:37.061Z,24.97
2018-08-02T07:29:37.319Z,24.9
2018-08-02T07:30:37.697Z,25.02
2018-08-02T07:31:37.038Z,24.98
2018-08-02T07:32:37.036Z,25.02
2018-08-02T07:33:37.443Z,25.09
2018-08-02T07:34:37.551Z,25.06
2018-08-02T07:35:37.272Z,25.2
2018-08-02T07:36:37.264Z,25.22
2018-08-02T07:37:37.259Z,25.5
2018-08-02T07:38:37.256Z,25.99
2018-08-02T07:39:37.519Z,26.37
2018-08-02T07:40:36.978Z,26.55
2018-08-02T07:41:37.505Z,26.84
2018-08-02T07:42:36.967Z,27.16
2018-08-02T07:43:37.500Z,27.54
2018-08-02T07:44:37.224Z,27.88
2018-08-02T07:45:37.220Z,28.11
2018-08-02T07:46:37.210Z,28.21
2018-08-02T07:47:37.234Z,28.33
2018-08-02T07:48:37.560Z,28.5
2018-08-02T07:49:37.467Z,28.6
2018-08-02T07:50:37.207Z,28.75
2018-08-02T07:51:37.471Z,28.88
2018-08-02T07:52:37.194Z,28.88
2018-08-02T07:53:37.454Z,28.66
2018-08-02T07:54:37.452Z,28.66
2018-08-02T07:55:37.183Z,28.69
2018-08-02T07:56:37.450Z,28.77
2018-08-02T07:57:37.446Z,28.88
2018-08-02T07:58:37.187Z,28.96
2018-08-02T07:59:37.182Z,28.78
2018-08-02T08:00:37.179Z,28.59
2018-08-02T08:01:37.435Z,28.56
2018-08-02T08:02:37.178Z,28.43
2018-08-02T08:03:37.464Z,28.5
2018-08-02T08:04:37.441Z,28.56
2018-08-02T08:05:36.909Z,28.54
2018-08-02T08:06:37.174Z,28.56
2018-08-02T08:07:37.449Z,28.54
2018-08-02T08:08:36.910Z,28.54
2018-08-02T08:09:37.169Z,28.56
2018-08-02T08:10:37.435Z,28.56
2018-08-02T08:11:37.439Z,28.56
2018-08-02T08:12:37.223Z,28.44
2018-08-02T08:13:37.437Z,28.36
2018-08-02T08:14:37.179Z,28.36
2018-08-02T08:15:37.173Z,28.43
2018-08-02T08:16:37.210Z,28.38
2018-08-02T08:17:36.910Z,28.41
2018-08-02T08:18:36.913Z,28.5
2018-08-02T08:19:37.441Z,28.77
2018-08-02T08:20:37.666Z,29.4
2018-08-02T08:21:37.574Z,30.45
2018-08-02T08:22:37.905Z,31.5
2018-08-02T08:23:37.212Z,32.33
2018-08-02T08:24:37.181Z,33.13
2018-08-02T08:25:37.490Z,33.57
2018-08-02T08:26:37.485Z,33.57
2018-08-02T08:27:37.194Z,33.41
2018-08-02T08:28:36.926Z,33.1
2018-08-02T08:29:37.597Z,32.79
2018-08-02T08:30:37.479Z,32.33
2018-08-02T08:31:37.189Z,32.07
2018-08-02T08:32:37.497Z,31.79
2018-08-02T08:33:37.480Z,31.61
2018-08-02T08:34:36.921Z,31.38
2018-08-02T08:35:37.199Z,31.3
2018-08-02T08:36:37.183Z,31.53
2018-08-02T08:37:37.342Z,31.58
2018-08-02T08:38:36.920Z,31.93
2018-08-02T08:39:37.182Z,31.99
2018-08-02T08:40:37.446Z,31.96
2018-08-02T08:41:37.195Z,31.65
2018-08-02T08:42:36.918Z,31.27
2018-08-02T08:43:37.253Z,31.13
2018-08-02T08:44:37.173Z,30.98
2018-08-02T08:45:37.438Z,30.76
2018-08-02T08:46:37.435Z,30.68
2018-08-02T08:47:37.439Z,30.5
2018-08-02T08:48:36.907Z,30.33
2018-08-02T08:49:37.552Z,30.31
2018-08-02T08:50:37.299Z,30.29
2018-08-02T08:51:37.159Z,30.46
2018-08-02T08:52:37.170Z,30.4
2018-08-02T08:53:37.171Z,30.3
2018-08-02T08:54:37.155Z,30.34
2018-08-02T08:55:37.413Z,30.34
2018-08-02T08:56:37.618Z,30.3
2018-08-02T08:57:37.418Z,30.21
2018-08-02T08:58:37.147Z,29.96
2018-08-02T08:59:37.408Z,29.97
2018-08-02T09:00:36.868Z,29.89
2018-08-02T09:01:37.407Z,29.93
2018-08-02T09:02:37.399Z,29.81
2018-08-02T09:03:36.964Z,29.74
2018-08-02T09:04:37.388Z,29.7
2018-08-02T09:05:37.119Z,29.66
2018-08-02T09:06:37.173Z,29.62
2018-08-02T09:07:37.115Z,29.59
2018-08-02T09:08:37.379Z,29.56
2018-08-02T09:09:37.197Z,29.5
2018-08-02T09:10:37.648Z,29.35
2018-08-02T09:11:37.101Z,29.49
2018-08-02T09:12:37.097Z,29.47
2018-08-02T09:13:37.089Z,29.72
2018-08-02T09:14:37.353Z,30.18
2018-08-02T09:15:37.087Z,30.52
2018-08-02T09:16:37.077Z,30.67
2018-08-02T09:17:37.344Z,30.64
2018-08-02T09:18:37.076Z,30.5
2018-08-02T09:19:37.334Z,30.47
2018-08-02T09:20:37.067Z,30.62
2018-08-02T09:21:37.380Z,30.76
2018-08-02T09:22:37.322Z,30.83
2018-08-02T09:23:37.058Z,31.09
2018-08-02T09:24:36.792Z,31.31
2018-08-02T09:25:36.792Z,31.53
2018-08-02T09:26:36.816Z,31.88
2018-08-02T09:27:37.338Z,32.21
2018-08-02T09:28:37.323Z,32.8
2018-08-02T09:29:36.795Z,33.11
2018-08-02T09:30:37.315Z,33.3
2018-08-02T09:31:37.058Z,33.1
2018-08-02T09:32:37.263Z,32.89
2018-08-02T09:33:37.051Z,32.54
2018-08-02T09:34:37.320Z,32.15
2018-08-02T09:35:37.310Z,31.99
2018-08-02T09:36:37.358Z,31.84
2018-08-02T09:37:37.313Z,31.61
2018-08-02T09:38:37.099Z,31.3
2018-08-02T09:39:36.782Z,31.13
2018-08-02T09:40:37.046Z,31.13
2018-08-02T09:41:36.781Z,30.99
2018-08-02T09:42:37.047Z,31.01
2018-08-02T09:43:37.042Z,30.89
2018-08-02T09:44:37.026Z,30.75
2018-08-02T09:45:37.057Z,30.71
2018-08-02T09:46:36.905Z,30.75
2018-08-02T09:47:37.289Z,30.59
2018-08-02T09:48:37.031Z,30.62
2018-08-02T09:49:36.760Z,30.62
2018-08-02T09:50:37.022Z,30.57
2018-08-02T09:51:36.805Z,30.57
2018-08-02T09:52:37.013Z,30.52
2018-08-02T09:53:37.268Z,30.46
2018-08-02T09:54:37.009Z,30.43
2018-08-02T09:55:37.000Z,30.37
2018-08-02T09:56:37.083Z,30.4
2018-08-02T09:57:37.300Z,30.38
2018-08-02T09:58:36.991Z,30.43
2018-08-02T09:59:36.998Z,30.5
2018-08-02T10:00:37.255Z,30.57
2018-08-02T10:01:37.249Z,30.59
2018-08-02T10:02:36.717Z,30.75
2018-08-02T10:03:37.429Z,31.12
2018-08-02T10:04:36.980Z,31.35
2018-08-02T10:05:37.240Z,31.87
2018-08-02T10:06:37.034Z,31.96
2018-08-02T10:07:36.976Z,31.95
2018-08-02T10:08:36.964Z,31.91
2018-08-02T10:09:36.969Z,31.91
2018-08-02T10:10:37.227Z,31.68
2018-08-02T10:11:36.965Z,31.7
2018-08-02T10:12:36.698Z,31.55
2018-08-02T10:13:36.961Z,31.62
2018-08-02T10:14:36.961Z,31.53
2018-08-02T10:15:36.949Z,31.43
2018-08-02T10:16:37.521Z,31.33
2018-08-02T10:17:36.683Z,31.31
2018-08-02T10:18:36.946Z,31.38
2018-08-02T10:19:36.681Z,31.48
2018-08-02T10:20:36.946Z,31.67
2018-08-02T10:21:37.201Z,31.65
2018-08-02T10:22:37.445Z,31.72
2018-08-02T10:23:36.938Z,31.6
2018-08-02T10:24:36.935Z,31.57
2018-08-02T10:25:36.934Z,31.45
2018-08-02T10:26:36.936Z,31.42
2018-08-02T10:27:36.929Z,31.42
2018-08-02T10:28:36.663Z,31.46
2018-08-02T10:29:36.665Z,31.5
2018-08-02T10:30:37.186Z,31.55
2018-08-02T10:31:37.188Z,31.67
2018-08-02T10:32:37.191Z,31.91
2018-08-02T10:33:36.656Z,32.13
2018-08-02T10:34:36.925Z,32.52
2018-08-02T10:35:36.923Z,32.96
2018-08-02T10:36:37.179Z,33.41
2018-08-02T10:37:37.292Z,33.85
2018-08-02T10:38:36.919Z,34.35
2018-08-02T10:39:36.927Z,34.69
2018-08-02T10:40:37.188Z,35.26
2018-08-02T10:41:37.197Z,35.7
2018-08-02T10:42:36.929Z,36.06
2018-08-02T10:43:36.666Z,36.46
2018-08-02T10:44:37.460Z,36.79
2018-08-02T10:45:36.681Z,37.13
2018-08-02T10:46:37.211Z,37.36
2018-08-02T10:47:36.948Z,37.86
2018-08-02T10:48:36.949Z,38.14
2018-08-02T10:49:37.222Z,38.22
2018-08-02T10:50:36.971Z,38.27
2018-08-02T10:51:37.236Z,38.44
2018-08-02T10:52:36.974Z,38.61
2018-08-02T10:53:37.238Z,38.71
2018-08-02T10:54:36.981Z,38.76
2018-08-02T10:55:36.738Z,38.89
2018-08-02T10:56:37.264Z,39.13
2018-08-02T10:57:37.003Z,39.24
2018-08-02T10:58:37.004Z,39.37
2018-08-02T10:59:37.277Z,39.49
2018-08-02T11:00:37.024Z,39.35
2018-08-02T11:01:37.559Z,39.47
2018-08-02T11:02:37.032Z,39.7
2018-08-02T11:03:37.043Z,39.88
2018-08-02T11:04:36.783Z,40.07
2018-08-02T11:05:37.319Z,40.4
2018-08-02T11:06:37.325Z,40.36
2018-08-02T11:07:37.332Z,40.3
2018-08-02T11:08:36.817Z,39.59
2018-08-02T11:09:37.680Z,39.77
2018-08-02T11:10:37.357Z,39.88
2018-08-02T11:11:37.098Z,39.56
2018-08-02T11:12:36.871Z,39.43
2018-08-02T11:13:37.381Z,39.67
2018-08-02T11:14:37.124Z,40.07
2018-08-02T11:15:37.562Z,40.21
2018-08-02T11:16:37.142Z,40.29
2018-08-02T11:17:37.416Z,40.34
2018-08-02T11:18:37.158Z,40.27
2018-08-02T11:19:37.169Z,40.42
2018-08-02T11:20:37.437Z,40.59
2018-08-02T11:21:37.447Z,40.81
2018-08-02T11:22:36.921Z,40.88
2018-08-02T11:23:37.460Z,41.15
2018-08-02T11:24:37.205Z,41.28
2018-08-02T11:25:37.214Z,41.28
2018-08-02T11:26:37.223Z,41.39
2018-08-02T11:27:36.969Z,41.47
2018-08-02T11:28:37.510Z,41.43
2018-08-02T11:29:37.251Z,41.62
2018-08-02T11:30:36.994Z,41.4
2018-08-02T11:31:37.277Z,41.31
2018-08-02T11:32:37.283Z,41.2
2018-08-02T11:33:37.556Z,41.15
2018-08-02T11:34:37.292Z,41.2
2018-08-02T11:35:37.304Z,41.28
2018-08-02T11:36:37.309Z,41.59
2018-08-02T11:37:37.457Z,41.77
2018-08-02T11:38:37.332Z,42
2018-08-02T11:39:37.338Z,42.09
2018-08-02T11:40:37.622Z,42.09
2018-08-02T11:41:37.095Z,42.37
2018-08-02T11:42:37.382Z,42.54
2018-08-02T11:43:37.409Z,42.57
2018-08-02T11:44:37.404Z,42.7
2018-08-02T11:45:37.408Z,42.69
2018-08-02T11:46:37.414Z,42.47
2018-08-02T11:47:37.495Z,42.47
2018-08-02T11:48:37.163Z,42.32
2018-08-02T11:49:37.433Z,42.39
2018-08-02T11:50:37.707Z,42.39
2018-08-02T11:51:37.454Z,42.23
2018-08-02T11:52:37.470Z,42.37
2018-08-02T11:53:37.477Z,42.39
2018-08-02T11:54:37.216Z,42.44
2018-08-02T11:55:37.222Z,42.57
2018-08-02T11:56:38.155Z,42.54
2018-08-02T11:57:38.196Z,42.66
2018-08-02T11:58:37.533Z,42.81
2018-08-02T11:59:37.529Z,42.81
2018-08-02T12:00:37.810Z,42.95
2018-08-02T12:01:37.810Z,43.13
2018-08-02T12:02:37.565Z,43.19
2018-08-02T12:03:37.568Z,43.22
2018-08-02T12:04:37.317Z,43.45
2018-08-02T12:05:37.588Z,43.38
2018-08-02T12:06:37.608Z,43.3
2018-08-02T12:07:37.880Z,43.32
2018-08-02T12:08:37.904Z,43.42
2018-08-02T12:09:37.367Z,43.38
2018-08-02T12:10:37.639Z,43.37
2018-08-02T12:11:37.382Z,43.38
2018-08-02T12:12:37.923Z,43.39
2018-08-02T12:13:37.936Z,43.3
2018-08-02T12:14:37.684Z,43.34
2018-08-02T12:15:37.693Z,43.41
2018-08-02T12:16:37.985Z,43.51
2018-08-02T12:17:37.986Z,43.7
2018-08-02T12:18:37.884Z,43.76
2018-08-02T12:19:38.136Z,43.92
2018-08-02T12:20:38.005Z,44.24
2018-08-02T12:21:38.024Z,44.4
2018-08-02T12:22:37.765Z,44.42
2018-08-02T12:23:38.374Z,44.58
2018-08-02T12:24:38.092Z,44.54
2018-08-02T12:25:37.527Z,44.55
2018-08-02T12:26:38.072Z,44.36
2018-08-02T12:27:38.090Z,44.31
2018-08-02T12:28:37.830Z,44.39
2018-08-02T12:29:37.578Z,44.17
2018-08-02T12:30:37.845Z,44.1
2018-08-02T12:31:37.853Z,43.8
2018-08-02T12:32:38.180Z,43.48
2018-08-02T12:33:37.875Z,43.3
2018-08-02T12:34:37.950Z,43.26
2018-08-02T12:35:37.902Z,43.37
2018-08-02T12:36:37.926Z,43.68
2018-08-02T12:37:38.178Z,43.95
2018-08-02T12:38:37.664Z,44.24
2018-08-02T12:39:37.935Z,44.35
2018-08-02T12:40:38.218Z,44.28
2018-08-02T12:41:37.736Z,44.06
2018-08-02T12:42:37.969Z,43.27
2018-08-02T12:43:37.720Z,42.94
2018-08-02T12:44:38.253Z,43.02
2018-08-02T12:45:37.734Z,43.18
2018-08-02T12:46:38.016Z,43.37
2018-08-02T12:47:38.020Z,43.57
2018-08-02T12:48:38.302Z,43.76
2018-08-02T12:49:38.320Z,43.89
2018-08-02T12:50:38.130Z,43.9
2018-08-02T12:51:38.111Z,43.9
2018-08-02T12:52:38.708Z,43.73
2018-08-02T12:53:38.363Z,43.51
2018-08-02T12:54:38.205Z,43.56
2018-08-02T12:55:38.429Z,43.61